Hovedside
METAR-TAF:

METAR-TAF

Lufthavner :

Tan Son Nhat internasjonale lufthavn

Ho Chi Minh-byen, Vietnam

breddegrad: 10-49N, lengdegrad: 106-40E, høyde over havet: 19 m

Gjeldene værobservasjon

Denne rapporten ble laget for 31 minutter siden, klokken 21:00 UTC
Vind 4 kt fra Nord-nordøst
Temperatur 24°C
Luftfuktighet 94%
Trykk 1011 hPa
Sikt: 8000 m
Få skyer i en høyde av 1500 ft
Brutte skyer i en høyde av 5000 ft

METAR: VVTS 132100Z 03004KT 8000 FEW015 BKN050 24/23 Q1011 NOSIG

Tid: 04:31 (21:31 UTC)

Varsel

Denne rapporten ble laget for 4 timer og 31 minutter siden, klokken 17:00 UTC
Varsel gyldig fra 13. klokken 18 UTC til 14. klokken 24 UTC
Vind 5 kt fra Øst-nordøst
Sikt 10 km eller mer
Få skyer i en høyde av 1700 ft
Blir
fra 14. klokken 01 UTC til 14. klokken 02 UTC
Vind 10 kt fra Øst

TAF: VVTS 131700Z 1318/1424 06005KT 9999 FEW017 BECMG 1401/1402 09010KT

Værobservasjoner og værvarsel for over 4000 flyplasser (METAR- og TAF-rapporter).

Tilgjengelige stasjoner er representert av de røde og gule prikkene på kartet.

Hold musepekeren over prikken for å se navnet på stasjonen.

Klikk så for å se værobservasjoner og -varsler.

For å forandre kartet kan du klikke på den grønne knappen med svart kryss for å zoome inn, på den grønne knappen med strek for å zoome ut, eller på de grønne pilene for å se tilstøtende kart.


METAR-TAF: